sensor_id;sensor_type;location;lat;lon;timestamp;temperature;humidity
5576;DHT22;2810;50.134;8.626;2022-12-18T00:01:24;-7.00;99.90
5576;DHT22;2810;50.134;8.626;2022-12-18T00:03:51;-7.00;99.90
5576;DHT22;2810;50.134;8.626;2022-12-18T00:06:17;-7.00;99.90
5576;DHT22;2810;50.134;8.626;2022-12-18T00:08:43;-7.00;99.90
5576;DHT22;2810;50.134;8.626;2022-12-18T00:11:10;-7.00;99.90
5576;DHT22;2810;50.134;8.626;2022-12-18T00:13:36;-7.20;99.90
5576;DHT22;2810;50.134;8.626;2022-12-18T00:16:06;-7.20;99.90
5576;DHT22;2810;50.134;8.626;2022-12-18T00:18:32;-7.30;99.90
5576;DHT22;2810;50.134;8.626;2022-12-18T00:21:01;-7.10;99.90
5576;DHT22;2810;50.134;8.626;2022-12-18T00:23:27;-7.40;99.90
5576;DHT22;2810;50.134;8.626;2022-12-18T00:25:53;-7.40;99.90
5576;DHT22;2810;50.134;8.626;2022-12-18T00:28:18;-7.40;99.90
5576;DHT22;2810;50.134;8.626;2022-12-18T00:30:43;-7.40;99.90
5576;DHT22;2810;50.134;8.626;2022-12-18T00:33:09;-7.40;99.90
5576;DHT22;2810;50.134;8.626;2022-12-18T00:35:34;-6.80;99.90
5576;DHT22;2810;50.134;8.626;2022-12-18T00:38:00;-7.50;99.90
5576;DHT22;2810;50.134;8.626;2022-12-18T00:40:25;-7.40;99.90
5576;DHT22;2810;50.134;8.626;2022-12-18T00:42:51;-7.60;99.90
5576;DHT22;2810;50.134;8.626;2022-12-18T00:45:26;-7.80;99.90
5576;DHT22;2810;50.134;8.626;2022-12-18T00:47:52;-7.70;99.90
5576;DHT22;2810;50.134;8.626;2022-12-18T00:50:17;-7.70;99.90
5576;DHT22;2810;50.134;8.626;2022-12-18T00:52:43;-7.00;99.90
5576;DHT22;2810;50.134;8.626;2022-12-18T00:55:09;-7.70;99.90
5576;DHT22;2810;50.134;8.626;2022-12-18T00:57:34;-7.00;99.90
5576;DHT22;2810;50.134;8.626;2022-12-18T01:00:00;-7.10;99.90
5576;DHT22;2810;50.134;8.626;2022-12-18T01:02:25;-7.00;99.90
5576;DHT22;2810;50.134;8.626;2022-12-18T01:04:51;-7.80;99.90
5576;DHT22;2810;50.134;8.626;2022-12-18T01:07:16;-7.00;99.90
5576;DHT22;2810;50.134;8.626;2022-12-18T01:09:42;-7.00;99.90
5576;DHT22;2810;50.134;8.626;2022-12-18T01:12:07;-7.80;99.90
5576;DHT22;2810;50.134;8.626;2022-12-18T01:14:33;-7.10;99.90
5576;DHT22;2810;50.134;8.626;2022-12-18T01:16:58;-6.90;99.90
5576;DHT22;2810;50.134;8.626;2022-12-18T01:19:24;-7.90;99.90
5576;DHT22;2810;50.134;8.626;2022-12-18T01:21:49;-7.10;99.90
5576;DHT22;2810;50.134;8.626;2022-12-18T01:24:15;-7.10;99.90
5576;DHT22;2810;50.134;8.626;2022-12-18T01:26:40;-7.20;99.90
5576;DHT22;2810;50.134;8.626;2022-12-18T01:29:06;-7.10;99.90
5576;DHT22;2810;50.134;8.626;2022-12-18T01:31:33;-6.80;99.90
5576;DHT22;2810;50.134;8.626;2022-12-18T01:34:02;-7.10;99.90
5576;DHT22;2810;50.134;8.626;2022-12-18T01:36:29;-7.90;99.90
5576;DHT22;2810;50.134;8.626;2022-12-18T01:38:56;-7.20;99.90
5576;DHT22;2810;50.134;8.626;2022-12-18T01:41:23;-7.80;99.90
5576;DHT22;2810;50.134;8.626;2022-12-18T01:43:50;-8.00;99.90
5576;DHT22;2810;50.134;8.626;2022-12-18T01:46:17;-8.00;99.90
5576;DHT22;2810;50.134;8.626;2022-12-18T01:48:43;-7.20;99.90
5576;DHT22;2810;50.134;8.626;2022-12-18T01:51:09;-7.20;99.90
5576;DHT22;2810;50.134;8.626;2022-12-18T01:53:36;-7.80;99.90
5576;DHT22;2810;50.134;8.626;2022-12-18T01:56:02;-7.30;99.90
5576;DHT22;2810;50.134;8.626;2022-12-18T01:58:46;-8.00;99.90
5576;DHT22;2810;50.134;8.626;2022-12-18T02:01:13;-8.00;99.90
5576;DHT22;2810;50.134;8.626;2022-12-18T02:03:40;-8.00;99.90
5576;DHT22;2810;50.134;8.626;2022-12-18T02:06:11;-7.90;99.90
5576;DHT22;2810;50.134;8.626;2022-12-18T02:13:36;-7.90;99.90
5576;DHT22;2810;50.134;8.626;2022-12-18T02:18:32;-7.90;99.90
5576;DHT22;2810;50.134;8.626;2022-12-18T02:28:31;-6.90;99.90
5576;DHT22;2810;50.134;8.626;2022-12-18T02:30:58;-7.40;99.90
5576;DHT22;2810;50.134;8.626;2022-12-18T02:33:25;-7.80;99.90
5576;DHT22;2810;50.134;8.626;2022-12-18T02:35:51;-7.80;99.90
5576;DHT22;2810;50.134;8.626;2022-12-18T02:38:19;-7.10;99.90
5576;DHT22;2810;50.134;8.626;2022-12-18T02:40:44;-7.90;99.90
5576;DHT22;2810;50.134;8.626;2022-12-18T02:43:13;-7.20;99.90
5576;DHT22;2810;50.134;8.626;2022-12-18T02:45:48;-7.90;99.90
5576;DHT22;2810;50.134;8.626;2022-12-18T02:48:15;-7.80;99.90
5576;DHT22;2810;50.134;8.626;2022-12-18T02:50:51;-7.00;99.90
5576;DHT22;2810;50.134;8.626;2022-12-18T02:53:25;-7.90;99.90
5576;DHT22;2810;50.134;8.626;2022-12-18T03:01:09;-7.90;99.90
5576;DHT22;2810;50.134;8.626;2022-12-18T03:03:36;-8.00;99.90
5576;DHT22;2810;50.134;8.626;2022-12-18T03:06:07;-7.10;99.90
5576;DHT22;2810;50.134;8.626;2022-12-18T03:08:38;-8.00;99.90
5576;DHT22;2810;50.134;8.626;2022-12-18T03:11:06;-8.00;99.90
5576;DHT22;2810;50.134;8.626;2022-12-18T03:13:33;-7.40;99.90
5576;DHT22;2810;50.134;8.626;2022-12-18T03:16:00;-7.70;99.90
5576;DHT22;2810;50.134;8.626;2022-12-18T03:18:29;-7.30;99.90
5576;DHT22;2810;50.134;8.626;2022-12-18T03:20:56;-7.40;99.90
5576;DHT22;2810;50.134;8.626;2022-12-18T03:23:25;-8.60;99.90
5576;DHT22;2810;50.134;8.626;2022-12-18T03:25:51;-6.90;99.90
5576;DHT22;2810;50.134;8.626;2022-12-18T03:28:20;-7.30;99.90
5576;DHT22;2810;50.134;8.626;2022-12-18T03:30:46;-7.30;99.90
5576;DHT22;2810;50.134;8.626;2022-12-18T03:33:15;-7.40;99.90
5576;DHT22;2810;50.134;8.626;2022-12-18T03:35:43;-8.20;99.90
5576;DHT22;2810;50.134;8.626;2022-12-18T03:38:09;-6.90;99.90
5576;DHT22;2810;50.134;8.626;2022-12-18T03:40:44;-8.30;99.90
5576;DHT22;2810;50.134;8.626;2022-12-18T03:43:11;-8.20;99.90
5576;DHT22;2810;50.134;8.626;2022-12-18T03:45:43;-7.40;99.90
5576;DHT22;2810;50.134;8.626;2022-12-18T03:48:19;-7.50;99.90
5576;DHT22;2810;50.134;8.626;2022-12-18T03:50:49;-8.30;99.90
5576;DHT22;2810;50.134;8.626;2022-12-18T03:56:03;-8.30;99.90
5576;DHT22;2810;50.134;8.626;2022-12-18T03:58:29;-8.30;99.90
5576;DHT22;2810;50.134;8.626;2022-12-18T04:00:56;-7.50;99.90
5576;DHT22;2810;50.134;8.626;2022-12-18T04:03:22;-7.80;99.90
5576;DHT22;2810;50.134;8.626;2022-12-18T04:05:48;-7.70;99.90
5576;DHT22;2810;50.134;8.626;2022-12-18T04:08:15;-8.30;99.90
5576;DHT22;2810;50.134;8.626;2022-12-18T04:10:41;-8.40;99.90
5576;DHT22;2810;50.134;8.626;2022-12-18T04:13:06;-8.20;99.90
5576;DHT22;2810;50.134;8.626;2022-12-18T04:15:33;-7.70;99.90
5576;DHT22;2810;50.134;8.626;2022-12-18T04:17:59;-8.40;99.90
5576;DHT22;2810;50.134;8.626;2022-12-18T04:20:25;-7.70;99.90
5576;DHT22;2810;50.134;8.626;2022-12-18T04:22:50;-7.00;99.90
5576;DHT22;2810;50.134;8.626;2022-12-18T04:25:16;-8.40;99.90
5576;DHT22;2810;50.134;8.626;2022-12-18T04:27:41;-8.10;99.90
5576;DHT22;2810;50.134;8.626;2022-12-18T04:30:07;-7.70;99.90
5576;DHT22;2810;50.134;8.626;2022-12-18T04:32:33;-8.40;99.90
5576;DHT22;2810;50.134;8.626;2022-12-18T04:34:59;-8.60;99.90
5576;DHT22;2810;50.134;8.626;2022-12-18T04:37:24;-7.60;99.90
5576;DHT22;2810;50.134;8.626;2022-12-18T04:39:50;-7.70;99.90
5576;DHT22;2810;50.134;8.626;2022-12-18T04:42:15;-8.50;99.90
5576;DHT22;2810;50.134;8.626;2022-12-18T04:44:41;-7.60;99.90
5576;DHT22;2810;50.134;8.626;2022-12-18T04:47:06;-7.70;99.90
5576;DHT22;2810;50.134;8.626;2022-12-18T04:49:32;-7.70;99.90
5576;DHT22;2810;50.134;8.626;2022-12-18T04:51:58;-7.60;99.90
5576;DHT22;2810;50.134;8.626;2022-12-18T04:54:23;-7.70;99.90
5576;DHT22;2810;50.134;8.626;2022-12-18T04:56:49;-7.70;99.90
5576;DHT22;2810;50.134;8.626;2022-12-18T04:59:14;-8.60;99.90
5576;DHT22;2810;50.134;8.626;2022-12-18T05:01:40;-8.60;99.90
5576;DHT22;2810;50.134;8.626;2022-12-18T05:04:05;-7.90;99.90
5576;DHT22;2810;50.134;8.626;2022-12-18T05:06:31;-7.80;99.90
5576;DHT22;2810;50.134;8.626;2022-12-18T05:08:56;-8.60;99.90
5576;DHT22;2810;50.134;8.626;2022-12-18T05:11:22;-8.60;99.90
5576;DHT22;2810;50.134;8.626;2022-12-18T05:13:48;-8.70;99.90
5576;DHT22;2810;50.134;8.626;2022-12-18T05:16:13;-7.80;99.90
5576;DHT22;2810;50.134;8.626;2022-12-18T05:18:39;-8.00;99.90
5576;DHT22;2810;50.134;8.626;2022-12-18T05:21:05;-8.50;99.90
5576;DHT22;2810;50.134;8.626;2022-12-18T05:23:31;-7.70;99.90
5576;DHT22;2810;50.134;8.626;2022-12-18T05:25:58;-7.80;99.90
5576;DHT22;2810;50.134;8.626;2022-12-18T05:28:24;-7.90;99.90
5576;DHT22;2810;50.134;8.626;2022-12-18T05:30:50;-8.00;99.90
5576;DHT22;2810;50.134;8.626;2022-12-18T05:33:17;-7.80;99.90
5576;DHT22;2810;50.134;8.626;2022-12-18T05:35:42;-8.70;99.90
5576;DHT22;2810;50.134;8.626;2022-12-18T05:38:08;-8.70;99.90
5576;DHT22;2810;50.134;8.626;2022-12-18T05:40:33;-8.70;99.90
5576;DHT22;2810;50.134;8.626;2022-12-18T05:42:59;-7.30;99.90
5576;DHT22;2810;50.134;8.626;2022-12-18T05:45:24;-8.50;99.90
5576;DHT22;2810;50.134;8.626;2022-12-18T05:47:50;-8.80;99.90
5576;DHT22;2810;50.134;8.626;2022-12-18T05:50:15;-8.00;99.90
5576;DHT22;2810;50.134;8.626;2022-12-18T05:52:41;-7.90;99.90
5576;DHT22;2810;50.134;8.626;2022-12-18T05:55:06;-8.80;99.90
5576;DHT22;2810;50.134;8.626;2022-12-18T05:57:32;-8.80;99.90
5576;DHT22;2810;50.134;8.626;2022-12-18T05:59:57;-8.80;99.90
5576;DHT22;2810;50.134;8.626;2022-12-18T06:02:23;-8.40;99.90
5576;DHT22;2810;50.134;8.626;2022-12-18T06:04:48;-8.00;99.90
5576;DHT22;2810;50.134;8.626;2022-12-18T06:07:14;-8.10;99.90
5576;DHT22;2810;50.134;8.626;2022-12-18T06:09:39;-7.90;99.90
5576;DHT22;2810;50.134;8.626;2022-12-18T06:12:05;-8.00;99.90
5576;DHT22;2810;50.134;8.626;2022-12-18T06:14:31;-8.90;99.90
5576;DHT22;2810;50.134;8.626;2022-12-18T06:16:56;-8.90;99.90
5576;DHT22;2810;50.134;8.626;2022-12-18T06:19:22;-8.10;99.90
5576;DHT22;2810;50.134;8.626;2022-12-18T06:21:47;-8.90;99.90
5576;DHT22;2810;50.134;8.626;2022-12-18T06:24:14;-8.20;99.90
5576;DHT22;2810;50.134;8.626;2022-12-18T06:26:40;-8.10;99.90
5576;DHT22;2810;50.134;8.626;2022-12-18T06:29:05;-8.20;99.90
5576;DHT22;2810;50.134;8.626;2022-12-18T06:31:31;-8.20;99.90
5576;DHT22;2810;50.134;8.626;2022-12-18T06:33:56;-8.50;99.90
5576;DHT22;2810;50.134;8.626;2022-12-18T06:36:22;-8.20;99.90
5576;DHT22;2810;50.134;8.626;2022-12-18T06:38:47;-8.20;99.90
5576;DHT22;2810;50.134;8.626;2022-12-18T06:41:14;-9.00;99.90
5576;DHT22;2810;50.134;8.626;2022-12-18T06:43:40;-8.90;99.90
5576;DHT22;2810;50.134;8.626;2022-12-18T06:46:06;-9.00;99.90
5576;DHT22;2810;50.134;8.626;2022-12-18T06:48:32;-8.20;99.90
5576;DHT22;2810;50.134;8.626;2022-12-18T06:50:57;-8.30;99.90
5576;DHT22;2810;50.134;8.626;2022-12-18T06:53:23;-8.20;99.90
5576;DHT22;2810;50.134;8.626;2022-12-18T06:55:48;-9.00;99.90
5576;DHT22;2810;50.134;8.626;2022-12-18T06:58:14;-8.90;99.90
5576;DHT22;2810;50.134;8.626;2022-12-18T07:00:39;-8.20;99.90
5576;DHT22;2810;50.134;8.626;2022-12-18T07:03:05;-9.50;99.90
5576;DHT22;2810;50.134;8.626;2022-12-18T07:05:31;-8.10;99.90
5576;DHT22;2810;50.134;8.626;2022-12-18T07:07:57;-8.40;99.90
5576;DHT22;2810;50.134;8.626;2022-12-18T07:10:22;-8.90;99.90
5576;DHT22;2810;50.134;8.626;2022-12-18T07:12:48;-8.10;99.90
5576;DHT22;2810;50.134;8.626;2022-12-18T07:15:13;-8.90;99.90
5576;DHT22;2810;50.134;8.626;2022-12-18T07:17:39;-8.90;99.90
5576;DHT22;2810;50.134;8.626;2022-12-18T07:20:04;-8.90;99.90
5576;DHT22;2810;50.134;8.626;2022-12-18T07:22:30;-8.90;99.90
5576;DHT22;2810;50.134;8.626;2022-12-18T07:24:55;-8.50;99.90
5576;DHT22;2810;50.134;8.626;2022-12-18T07:27:21;-8.90;99.90
5576;DHT22;2810;50.134;8.626;2022-12-18T07:29:47;-8.70;99.90
5576;DHT22;2810;50.134;8.626;2022-12-18T07:32:12;-8.90;99.90
5576;DHT22;2810;50.134;8.626;2022-12-18T07:34:38;-8.90;99.90
5576;DHT22;2810;50.134;8.626;2022-12-18T07:37:03;-8.00;99.90
5576;DHT22;2810;50.134;8.626;2022-12-18T07:39:29;-8.80;99.90
5576;DHT22;2810;50.134;8.626;2022-12-18T07:41:55;-8.80;99.90
5576;DHT22;2810;50.134;8.626;2022-12-18T07:44:39;-8.70;99.90
5576;DHT22;2810;50.134;8.626;2022-12-18T07:47:04;-7.90;99.90
5576;DHT22;2810;50.134;8.626;2022-12-18T07:49:30;-8.00;99.90
5576;DHT22;2810;50.134;8.626;2022-12-18T07:51:55;-8.70;99.90
5576;DHT22;2810;50.134;8.626;2022-12-18T07:54:22;-8.60;99.90
5576;DHT22;2810;50.134;8.626;2022-12-18T07:56:47;-7.90;99.90
5576;DHT22;2810;50.134;8.626;2022-12-18T07:59:13;-8.60;99.90
5576;DHT22;2810;50.134;8.626;2022-12-18T08:01:38;-8.60;99.90
5576;DHT22;2810;50.134;8.626;2022-12-18T08:04:04;-8.60;99.90
5576;DHT22;2810;50.134;8.626;2022-12-18T08:06:29;-8.50;99.90
5576;DHT22;2810;50.134;8.626;2022-12-18T08:08:55;-8.50;99.90
5576;DHT22;2810;50.134;8.626;2022-12-18T08:11:21;-8.10;99.90
5576;DHT22;2810;50.134;8.626;2022-12-18T08:13:47;-8.50;99.90
5576;DHT22;2810;50.134;8.626;2022-12-18T08:16:12;-8.40;99.90
5576;DHT22;2810;50.134;8.626;2022-12-18T08:18:38;-8.40;99.90
5576;DHT22;2810;50.134;8.626;2022-12-18T08:21:10;-7.50;99.90
5576;DHT22;2810;50.134;8.626;2022-12-18T08:23:35;-8.30;99.90
5576;DHT22;2810;50.134;8.626;2022-12-18T08:26:01;-8.10;99.90
5576;DHT22;2810;50.134;8.626;2022-12-18T08:28:26;-7.20;99.90
5576;DHT22;2810;50.134;8.626;2022-12-18T08:30:52;-8.00;99.90
5576;DHT22;2810;50.134;8.626;2022-12-18T08:33:17;-8.00;99.90
5576;DHT22;2810;50.134;8.626;2022-12-18T08:35:43;-7.90;99.90
5576;DHT22;2810;50.134;8.626;2022-12-18T08:38:08;-7.20;99.90
5576;DHT22;2810;50.134;8.626;2022-12-18T08:40:34;-6.90;99.90
5576;DHT22;2810;50.134;8.626;2022-12-18T08:42:59;-7.60;99.90
5576;DHT22;2810;50.134;8.626;2022-12-18T08:45:43;-6.40;99.90
5576;DHT22;2810;50.134;8.626;2022-12-18T08:48:09;-7.00;99.90
5576;DHT22;2810;50.134;8.626;2022-12-18T08:50:34;-6.50;99.90
5576;DHT22;2810;50.134;8.626;2022-12-18T08:53:00;-5.80;99.90
5576;DHT22;2810;50.134;8.626;2022-12-18T08:55:25;-5.30;99.90
5576;DHT22;2810;50.134;8.626;2022-12-18T08:57:51;-5.30;99.90
5576;DHT22;2810;50.134;8.626;2022-12-18T09:00:16;-4.90;99.90
5576;DHT22;2810;50.134;8.626;2022-12-18T09:02:42;-4.60;99.90
5576;DHT22;2810;50.134;8.626;2022-12-18T09:05:08;-3.70;99.90
5576;DHT22;2810;50.134;8.626;2022-12-18T09:07:33;-3.60;99.90
5576;DHT22;2810;50.134;8.626;2022-12-18T09:09:59;-3.20;99.90
5576;DHT22;2810;50.134;8.626;2022-12-18T09:12:24;-2.50;99.90
5576;DHT22;2810;50.134;8.626;2022-12-18T09:14:50;-2.10;99.90
5576;DHT22;2810;50.134;8.626;2022-12-18T09:17:15;-1.60;99.90
5576;DHT22;2810;50.134;8.626;2022-12-18T09:19:41;-1.10;99.90
5576;DHT22;2810;50.134;8.626;2022-12-18T09:22:06;-0.90;99.90
5576;DHT22;2810;50.134;8.626;2022-12-18T09:24:32;-0.30;99.90
5576;DHT22;2810;50.134;8.626;2022-12-18T09:26:57;0.30;99.90
5576;DHT22;2810;50.134;8.626;2022-12-18T09:29:23;0.90;99.90
5576;DHT22;2810;50.134;8.626;2022-12-18T09:31:48;1.40;99.90
5576;DHT22;2810;50.134;8.626;2022-12-18T09:34:15;1.70;99.90
5576;DHT22;2810;50.134;8.626;2022-12-18T09:36:40;2.30;99.90
5576;DHT22;2810;50.134;8.626;2022-12-18T09:39:06;2.70;99.90
5576;DHT22;2810;50.134;8.626;2022-12-18T09:41:38;3.00;99.90
5576;DHT22;2810;50.134;8.626;2022-12-18T09:47:12;3.40;99.90
5576;DHT22;2810;50.134;8.626;2022-12-18T09:49:37;3.50;99.90
5576;DHT22;2810;50.134;8.626;2022-12-18T09:52:15;4.00;98.80
5576;DHT22;2810;50.134;8.626;2022-12-18T09:54:41;4.50;97.80
5576;DHT22;2810;50.134;8.626;2022-12-18T09:57:15;4.80;95.60
5576;DHT22;2810;50.134;8.626;2022-12-18T09:59:42;4.80;94.50
5576;DHT22;2810;50.134;8.626;2022-12-18T10:02:12;4.70;93.60
5576;DHT22;2810;50.134;8.626;2022-12-18T10:04:38;4.40;94.80
5576;DHT22;2810;50.134;8.626;2022-12-18T10:07:08;4.20;93.50
5576;DHT22;2810;50.134;8.626;2022-12-18T10:09:43;4.20;96.00
5576;DHT22;2810;50.134;8.626;2022-12-18T10:12:23;3.40;95.40
5576;DHT22;2810;50.134;8.626;2022-12-18T10:15:06;3.00;97.30
5576;DHT22;2810;50.134;8.626;2022-12-18T10:17:47;3.10;96.80
5576;DHT22;2810;50.134;8.626;2022-12-18T10:20:22;2.00;99.50
5576;DHT22;2810;50.134;8.626;2022-12-18T10:25:39;2.30;99.90
5576;DHT22;2810;50.134;8.626;2022-12-18T10:28:13;2.60;99.90
5576;DHT22;2810;50.134;8.626;2022-12-18T10:30:39;2.40;99.90
5576;DHT22;2810;50.134;8.626;2022-12-18T10:33:05;2.00;99.90
5576;DHT22;2810;50.134;8.626;2022-12-18T10:35:31;1.40;99.90
5576;DHT22;2810;50.134;8.626;2022-12-18T10:38:00;1.10;99.90
5576;DHT22;2810;50.134;8.626;2022-12-18T10:40:26;0.40;99.90
5576;DHT22;2810;50.134;8.626;2022-12-18T10:43:11;-0.50;99.90
5576;DHT22;2810;50.134;8.626;2022-12-18T10:45:36;-0.90;99.90
5576;DHT22;2810;50.134;8.626;2022-12-18T10:48:02;-1.40;99.90
5576;DHT22;2810;50.134;8.626;2022-12-18T10:50:29;-1.80;99.90
5576;DHT22;2810;50.134;8.626;2022-12-18T10:52:57;-2.00;99.90
5576;DHT22;2810;50.134;8.626;2022-12-18T10:55:23;-2.20;99.90
5576;DHT22;2810;50.134;8.626;2022-12-18T10:57:50;-1.70;99.90
5576;DHT22;2810;50.134;8.626;2022-12-18T11:02:50;-3.10;99.90
5576;DHT22;2810;50.134;8.626;2022-12-18T11:05:32;-3.30;99.90
5576;DHT22;2810;50.134;8.626;2022-12-18T11:07:58;-3.40;99.90
5576;DHT22;2810;50.134;8.626;2022-12-18T11:10:31;-3.30;99.90
5576;DHT22;2810;50.134;8.626;2022-12-18T11:13:11;-3.50;99.90
5576;DHT22;2810;50.134;8.626;2022-12-18T11:15:36;-3.10;99.90
5576;DHT22;2810;50.134;8.626;2022-12-18T11:18:05;-3.10;99.90
5576;DHT22;2810;50.134;8.626;2022-12-18T11:20:31;-3.10;99.90
5576;DHT22;2810;50.134;8.626;2022-12-18T11:23:04;-3.10;99.90
5576;DHT22;2810;50.134;8.626;2022-12-18T11:25:31;-3.10;99.90
5576;DHT22;2810;50.134;8.626;2022-12-18T11:28:04;-3.10;99.90
5576;DHT22;2810;50.134;8.626;2022-12-18T11:30:31;-3.20;99.90
5576;DHT22;2810;50.134;8.626;2022-12-18T11:33:10;-3.30;99.90
5576;DHT22;2810;50.134;8.626;2022-12-18T11:38:13;-3.20;99.90
5576;DHT22;2810;50.134;8.626;2022-12-18T11:40:41;-3.10;99.90
5576;DHT22;2810;50.134;8.626;2022-12-18T11:45:40;-2.30;99.90
5576;DHT22;2810;50.134;8.626;2022-12-18T11:48:24;-3.10;99.90
5576;DHT22;2810;50.134;8.626;2022-12-18T11:50:53;-3.20;99.90
5576;DHT22;2810;50.134;8.626;2022-12-18T11:53:19;-2.50;99.90
5576;DHT22;2810;50.134;8.626;2022-12-18T11:55:54;-3.30;99.90
5576;DHT22;2810;50.134;8.626;2022-12-18T11:58:29;-3.40;99.90
5576;DHT22;2810;50.134;8.626;2022-12-18T12:01:05;-3.70;99.90
5576;DHT22;2810;50.134;8.626;2022-12-18T12:06:15;-3.60;99.90
5576;DHT22;2810;50.134;8.626;2022-12-18T12:09:19;-3.70;99.90
5576;DHT22;2810;50.134;8.626;2022-12-18T12:11:37;-3.60;99.90
5576;DHT22;2810;50.134;8.626;2022-12-18T12:21:57;-3.40;99.90
5576;DHT22;2810;50.134;8.626;2022-12-18T12:26:56;-3.30;99.90
5576;DHT22;2810;50.134;8.626;2022-12-18T12:32:44;-3.30;99.90
5576;DHT22;2810;50.134;8.626;2022-12-18T12:37:19;-3.30;99.90
5576;DHT22;2810;50.134;8.626;2022-12-18T12:39:46;-2.40;99.90
5576;DHT22;2810;50.134;8.626;2022-12-18T12:42:14;-2.20;99.90
5576;DHT22;2810;50.134;8.626;2022-12-18T12:45:00;-2.30;99.90
5576;DHT22;2810;50.134;8.626;2022-12-18T12:47:33;-3.00;99.90
5576;DHT22;2810;50.134;8.626;2022-12-18T12:50:02;-3.00;99.90
5576;DHT22;2810;50.134;8.626;2022-12-18T12:52:39;-3.10;99.90
5576;DHT22;2810;50.134;8.626;2022-12-18T12:55:07;-3.10;99.90
5576;DHT22;2810;50.134;8.626;2022-12-18T12:57:39;-3.20;99.90
5576;DHT22;2810;50.134;8.626;2022-12-18T13:00:12;-3.40;99.90
5576;DHT22;2810;50.134;8.626;2022-12-18T13:02:47;-3.30;99.90
5576;DHT22;2810;50.134;8.626;2022-12-18T13:05:18;-3.40;99.90
5576;DHT22;2810;50.134;8.626;2022-12-18T13:07:53;-2.60;99.90
5576;DHT22;2810;50.134;8.626;2022-12-18T13:15:39;-3.40;99.90
5576;DHT22;2810;50.134;8.626;2022-12-18T13:18:11;-3.40;99.90
5576;DHT22;2810;50.134;8.626;2022-12-18T13:20:39;-3.40;99.90
5576;DHT22;2810;50.134;8.626;2022-12-18T13:23:19;-3.40;99.90
5576;DHT22;2810;50.134;8.626;2022-12-18T13:25:44;-3.30;99.90
5576;DHT22;2810;50.134;8.626;2022-12-18T13:28:11;-3.20;99.90
5576;DHT22;2810;50.134;8.626;2022-12-18T13:30:56;-2.80;99.90
5576;DHT22;2810;50.134;8.626;2022-12-18T13:46:06;-2.80;99.90
5576;DHT22;2810;50.134;8.626;2022-12-18T13:48:31;-2.00;99.90
5576;DHT22;2810;50.134;8.626;2022-12-18T13:51:05;-2.80;99.90
5576;DHT22;2810;50.134;8.626;2022-12-18T13:53:33;-2.80;99.90
5576;DHT22;2810;50.134;8.626;2022-12-18T13:55:59;-2.70;99.90
5576;DHT22;2810;50.134;8.626;2022-12-18T13:58:24;-2.60;99.90
5576;DHT22;2810;50.134;8.626;2022-12-18T14:00:50;-1.80;99.90
5576;DHT22;2810;50.134;8.626;2022-12-18T14:03:23;-2.60;99.90
5576;DHT22;2810;50.134;8.626;2022-12-18T14:05:52;-2.70;99.90
5576;DHT22;2810;50.134;8.626;2022-12-18T14:08:18;-2.70;99.90
5576;DHT22;2810;50.134;8.626;2022-12-18T14:10:45;-2.70;99.90
5576;DHT22;2810;50.134;8.626;2022-12-18T14:13:13;-2.00;99.90
5576;DHT22;2810;50.134;8.626;2022-12-18T14:15:43;-2.10;99.90
5576;DHT22;2810;50.134;8.626;2022-12-18T14:20:56;-2.90;99.90
5576;DHT22;2810;50.134;8.626;2022-12-18T14:23:29;-2.20;99.90
5576;DHT22;2810;50.134;8.626;2022-12-18T14:25:55;-2.90;99.90
5576;DHT22;2810;50.134;8.626;2022-12-18T14:28:21;-2.90;99.90
5576;DHT22;2810;50.134;8.626;2022-12-18T14:30:50;-2.90;99.90
5576;DHT22;2810;50.134;8.626;2022-12-18T14:33:23;-2.80;99.90
5576;DHT22;2810;50.134;8.626;2022-12-18T14:35:56;-3.00;99.90
5576;DHT22;2810;50.134;8.626;2022-12-18T14:40:55;-3.00;99.90
5576;DHT22;2810;50.134;8.626;2022-12-18T14:43:23;-3.00;99.90
5576;DHT22;2810;50.134;8.626;2022-12-18T14:45:49;-3.00;99.90
5576;DHT22;2810;50.134;8.626;2022-12-18T14:48:17;-3.00;99.90
5576;DHT22;2810;50.134;8.626;2022-12-18T14:50:43;-3.20;99.90
5576;DHT22;2810;50.134;8.626;2022-12-18T14:53:27;-2.80;99.90
5576;DHT22;2810;50.134;8.626;2022-12-18T14:55:54;-3.00;99.90
5576;DHT22;2810;50.134;8.626;2022-12-18T14:58:19;-3.00;99.90
5576;DHT22;2810;50.134;8.626;2022-12-18T15:00:44;-3.00;99.90
5576;DHT22;2810;50.134;8.626;2022-12-18T15:03:12;-2.20;99.90
5576;DHT22;2810;50.134;8.626;2022-12-18T15:05:41;-2.20;99.90
5576;DHT22;2810;50.134;8.626;2022-12-18T15:08:24;-2.20;99.90
5576;DHT22;2810;50.134;8.626;2022-12-18T15:10:52;-3.00;99.90
5576;DHT22;2810;50.134;8.626;2022-12-18T15:13:21;-2.30;99.90
5576;DHT22;2810;50.134;8.626;2022-12-18T15:15:47;-3.00;99.90
5576;DHT22;2810;50.134;8.626;2022-12-18T15:18:15;-3.00;99.90
5576;DHT22;2810;50.134;8.626;2022-12-18T15:20:49;-3.00;99.90
5576;DHT22;2810;50.134;8.626;2022-12-18T15:25:43;-3.10;99.90
5576;DHT22;2810;50.134;8.626;2022-12-18T15:28:19;-3.10;99.90
5576;DHT22;2810;50.134;8.626;2022-12-18T15:31:00;-3.20;99.90
5576;DHT22;2810;50.134;8.626;2022-12-18T15:33:26;-2.60;99.90
5576;DHT22;2810;50.134;8.626;2022-12-18T15:36:02;-2.60;99.90
5576;DHT22;2810;50.134;8.626;2022-12-18T15:38:27;-3.20;99.90
5576;DHT22;2810;50.134;8.626;2022-12-18T15:40:53;-3.20;99.90
5576;DHT22;2810;50.134;8.626;2022-12-18T15:43:20;-3.30;99.90
5576;DHT22;2810;50.134;8.626;2022-12-18T15:46:14;-2.60;99.90
5576;DHT22;2810;50.134;8.626;2022-12-18T15:48:41;-3.30;99.90
5576;DHT22;2810;50.134;8.626;2022-12-18T15:51:15;-3.30;99.90
5576;DHT22;2810;50.134;8.626;2022-12-18T15:53:41;-3.40;99.90
5576;DHT22;2810;50.134;8.626;2022-12-18T15:56:13;-2.60;99.90
5576;DHT22;2810;50.134;8.626;2022-12-18T15:58:58;-3.50;99.90
5576;DHT22;2810;50.134;8.626;2022-12-18T16:01:24;-2.60;99.90
5576;DHT22;2810;50.134;8.626;2022-12-18T16:03:50;-3.50;99.90
5576;DHT22;2810;50.134;8.626;2022-12-18T16:06:16;-3.60;99.90
5576;DHT22;2810;50.134;8.626;2022-12-18T16:08:41;-3.60;99.90
5576;DHT22;2810;50.134;8.626;2022-12-18T16:11:11;-3.60;99.90
5576;DHT22;2810;50.134;8.626;2022-12-18T16:13:40;-2.90;99.90
5576;DHT22;2810;50.134;8.626;2022-12-18T16:16:07;-3.00;99.90
5576;DHT22;2810;50.134;8.626;2022-12-18T16:18:33;-3.00;99.90
5576;DHT22;2810;50.134;8.626;2022-12-18T16:20:59;-3.00;99.90
5576;DHT22;2810;50.134;8.626;2022-12-18T16:23:24;-3.70;99.90
5576;DHT22;2810;50.134;8.626;2022-12-18T16:25:50;-3.70;99.90
5576;DHT22;2810;50.134;8.626;2022-12-18T16:28:15;-3.70;99.90
5576;DHT22;2810;50.134;8.626;2022-12-18T16:30:41;-3.40;99.90
5576;DHT22;2810;50.134;8.626;2022-12-18T16:33:07;-3.70;99.90
5576;DHT22;2810;50.134;8.626;2022-12-18T16:35:33;-3.70;99.90
5576;DHT22;2810;50.134;8.626;2022-12-18T16:37:59;-3.60;99.90
5576;DHT22;2810;50.134;8.626;2022-12-18T16:40:24;-3.00;99.90
5576;DHT22;2810;50.134;8.626;2022-12-18T16:42:50;-3.00;99.90
5576;DHT22;2810;50.134;8.626;2022-12-18T16:45:16;-3.60;99.90
5576;DHT22;2810;50.134;8.626;2022-12-18T16:47:41;-3.60;99.90
5576;DHT22;2810;50.134;8.626;2022-12-18T16:50:07;-3.70;99.90
5576;DHT22;2810;50.134;8.626;2022-12-18T16:52:33;-3.80;99.90
5576;DHT22;2810;50.134;8.626;2022-12-18T16:54:59;-3.80;99.90
5576;DHT22;2810;50.134;8.626;2022-12-18T16:57:24;-3.70;99.90
5576;DHT22;2810;50.134;8.626;2022-12-18T16:59:50;-3.80;99.90
5576;DHT22;2810;50.134;8.626;2022-12-18T17:02:16;-3.80;99.90
5576;DHT22;2810;50.134;8.626;2022-12-18T17:04:43;-3.70;99.90
5576;DHT22;2810;50.134;8.626;2022-12-18T17:07:09;-3.70;99.90
5576;DHT22;2810;50.134;8.626;2022-12-18T17:09:34;-3.80;99.90
5576;DHT22;2810;50.134;8.626;2022-12-18T17:12:00;-3.70;99.90
5576;DHT22;2810;50.134;8.626;2022-12-18T17:14:25;-3.70;99.90
5576;DHT22;2810;50.134;8.626;2022-12-18T17:16:54;-3.70;99.90
5576;DHT22;2810;50.134;8.626;2022-12-18T17:19:22;-3.70;99.90
5576;DHT22;2810;50.134;8.626;2022-12-18T17:21:48;-3.70;99.90
5576;DHT22;2810;50.134;8.626;2022-12-18T17:24:14;-3.60;99.90
5576;DHT22;2810;50.134;8.626;2022-12-18T17:26:39;-3.20;99.90